Flight Track Log - Related Links

Times and Time Zones

All times are in EDT time to prevent confusion due to time zone crossing. See the UAL4528 flight status page for this flight to view local times or setup timezone preferences in your user account.

Time Position Orientation Groundspeed Altitude Reporting Facility
EDT Latitude Longitude Course Direction KTS MPH feet Rate Location/Type
Sun 02:49:54 PM 39.7167 -86.2833 201° Southwest 156 180 1,400  Level Indianapolis TRACON
Sun 02:50:30 PM 39.7500 -86.2500 38° Northeast 159 183 2,300 1,875 Climbing Indianapolis TRACON
Sun 02:51:30 PM 39.7333 -86.2000 113° Southeast 211 243 4,400 1,762 Climbing Indianapolis TRACON
Sun 02:52:36 PM 39.6667 -86.2167 191° South 265 305 6,000 1,626 Climbing Indianapolis TRACON
Sun 02:53:00 PM 39.3502 -86.4832 204° Southwest  Level FlightAware
Sun 02:54:00 PM 39.2569 -86.5300 201° Southwest  Level FlightAware
Sun 02:54:05 PM 39.5792 -86.2889 212° Southwest 279 321 8,600  Level Indianapolis Center
Sun 02:55:07 PM 39.4953 -86.3533 211° Southwest 285 328 10,500 1,452 Climbing Indianapolis Center
Sun 02:56:09 PM 39.4150 -86.4128 210° Southwest 312 359 11,600 1,113 Climbing Indianapolis Center
Sun 02:57:11 PM 39.3311 -86.4747 210° Southwest 332 382 12,800 1,355 Climbing Indianapolis Center
Sun 02:58:13 PM 39.2469 -86.5372 210° Southwest 342 394 14,400 1,548 Climbing Indianapolis Center
Sun 02:59:15 PM 39.1625 -86.5978 209° Southwest 345 397 16,000 1,355 Climbing Indianapolis Center
Sun 03:00:17 PM 39.0772 -86.6542 207° Southwest 344 396 17,200 968 Climbing Indianapolis Center
Sun 03:01:19 PM 38.9883 -86.7061 204° Southwest 347 399 18,000 1,210 Climbing Indianapolis Center
Sun 03:02:21 PM 38.8828 -86.7683 205° Southwest 346 398 19,700 1,403 Climbing Indianapolis Center
Sun 03:03:23 PM 38.7947 -86.8219 205° Southwest 347 399 20,900 1,161 Climbing Indianapolis Center
Sun 03:04:25 PM 38.7050 -86.8733 204° Southwest 352 405 22,100 1,161 Climbing Indianapolis Center
Sun 03:05:27 PM 38.6142 -86.9275 205° Southwest 358 412 23,300 1,113 Climbing Indianapolis Center
Sun 03:06:29 PM 38.5231 -86.9825 205° Southwest 359 413 24,400 1,065 Climbing Indianapolis Center
Sun 03:07:31 PM 38.4517 -87.0689 223° Southwest 358 412 25,500 1,210 Climbing Indianapolis Center
Sun 03:08:33 PM 38.3725 -87.1750 226° Southwest 354 407 26,900 1,210 Climbing Indianapolis Center
Sun 03:09:35 PM 38.3067 -87.2628 226° Southwest 349 402 28,000 1,065 Climbing Indianapolis Center
Sun 03:10:37 PM 38.2406 -87.3506 226° Southwest 346 398 29,100 1,113 Climbing Indianapolis Center
Sun 03:11:39 PM 38.1744 -87.4378 226° Southwest 344 396 30,300 1,113 Climbing Indianapolis Center
Sun 03:12:41 PM 38.1097 -87.5239 226° Southwest 338 389 31,400 1,065 Climbing Indianapolis Center
Sun 03:13:43 PM 38.0319 -87.6258 226° Southwest 335 386 32,500 1,016 Climbing Indianapolis Center
Sun 03:14:45 PM 37.9661 -87.7114 226° Southwest 337 388 33,500 919 Climbing Indianapolis Center
Sun 03:15:47 PM 37.8908 -87.7800 216° Southwest 338 389 34,400 864 Climbing Indianapolis Center
Sun 03:16:50 PM 37.8042 -87.8217 201° Southwest 336 387 35,300 768 Climbing Indianapolis Center
Sun 03:17:52 PM 37.7161 -87.8639 201° Southwest 327 376 36,000 339 Climbing Indianapolis Center
Sun 03:18:54 PM 37.6278 -87.9056 200° South 334 384 36,000  Level Indianapolis Center
Sun 03:19:34 PM 37.5606 -87.9450 205° Southwest 344 396 36,000  Level Memphis Center
Sun 03:20:34 PM 37.4719 -88.0050 208° Southwest 351 404 36,000  Level Memphis Center
Sun 03:21:34 PM 37.3967 -88.0989 225° Southwest 366 421 36,000  Level Memphis Center
Sun 03:22:34 PM 37.3150 -88.1897 222° Southwest 380 437 36,000  Level Memphis Center
Sun 03:23:34 PM 37.2353 -88.2831 223° Southwest 390 449 36,000  Level Memphis Center
Sun 03:24:34 PM 37.1536 -88.3764 222° Southwest 395 455 36,000  Level Memphis Center
Sun 03:25:34 PM 37.0717 -88.4719 223° Southwest 401 461 36,000  Level Memphis Center
Sun 03:26:46 PM 36.9897 -88.5647 222° Southwest 406 467 36,000  Level Memphis Center
Sun 03:27:46 PM 36.8914 -88.6758 222° Southwest 406 467 36,000  Level Memphis Center
Sun 03:28:46 PM 36.8072 -88.7736 223° Southwest 411 473 36,000  Level Memphis Center
Sun 03:29:46 PM 36.7250 -88.8683 223° Southwest 411 473 36,000  Level Memphis Center
Sun 03:30:46 PM 36.6425 -88.9578 221° Southwest 406 467 36,000  Level Memphis Center
Sun 03:31:46 PM 36.5581 -89.0522 222° Southwest 406 467 36,000  Level Memphis Center
Sun 03:32:46 PM 36.4758 -89.1467 223° Southwest 411 473 36,000  Level Memphis Center
Sun 03:33:46 PM 36.3933 -89.2406 223° Southwest 411 473 36,000  Level Memphis Center
Sun 03:34:46 PM 36.3108 -89.3344 223° Southwest 411 473 36,000  Level Memphis Center
Sun 03:35:46 PM 36.2281 -89.4206 220° Southwest 421 484 36,000  Level Memphis Center
Sun 03:36:46 PM 36.1472 -89.5114 222° Southwest 414 476 36,000  Level Memphis Center
Sun 03:37:46 PM 36.0644 -89.6047 222° Southwest 408 470 36,000  Level Memphis Center
Sun 03:38:46 PM 35.9797 -89.6978 222° Southwest 408 470 36,000  Level Memphis Center
Sun 03:39:46 PM 35.8967 -89.7908 222° Southwest 408 470 36,000  Level Memphis Center
Sun 03:40:46 PM 35.8094 -89.8861 222° Southwest 413 475 36,000  Level Memphis Center
Sun 03:41:46 PM 35.7242 -89.9811 222° Southwest 413 475 36,000  Level Memphis Center
Sun 03:42:46 PM 35.6433 -90.0736 223° Southwest 407 468 36,000  Level Memphis Center
Sun 03:43:46 PM 35.5558 -90.1681 221° Southwest 407 468 36,000  Level Memphis Center
Sun 03:44:46 PM 35.4725 -90.2603 222° Southwest 412 474 36,000  Level Memphis Center
Sun 03:45:46 PM 35.3850 -90.3569 222° Southwest 412 474 36,000  Level Memphis Center
Sun 03:46:46 PM 35.2972 -90.4511 221° Southwest 412 474 36,000  Level Memphis Center
Sun 03:47:46 PM 35.2117 -90.5453 222° Southwest 412 474 36,000  Level Memphis Center
Sun 03:48:46 PM 35.1239 -90.6389 221° Southwest 412 474 36,000  Level Memphis Center
Sun 03:49:46 PM 35.0319 -90.7375 221° Southwest 412 474 36,000  Level Memphis Center
Sun 03:50:46 PM 34.9461 -90.8283 221° Southwest 412 474 36,000  Level Memphis Center
Sun 03:51:46 PM 34.8600 -90.9214 222° Southwest 412 474 36,000  Level Memphis Center
Sun 03:52:46 PM 34.7761 -91.0119 222° Southwest 407 468 36,000  Level Memphis Center
Sun 03:53:46 PM 34.6900 -91.0997 220° Southwest 411 473 36,000  Level Memphis Center
Sun 03:54:46 PM 34.6061 -91.1897 221° Southwest 406 467 36,000  Level Memphis Center
Sun 03:55:46 PM 34.5261 -91.2772 222° Southwest 406 467 36,000  Level Memphis Center
Sun 03:56:46 PM 34.4419 -91.3644 221° Southwest 406 467 36,000  Level Memphis Center
Sun 03:57:46 PM 34.3600 -91.4492 220° Southwest 406 467 36,000  Level Memphis Center
Sun 03:58:46 PM 34.2778 -91.5386 222° Southwest 406 467 36,000  Level Memphis Center
Sun 03:59:46 PM 34.1933 -91.6253 220° Southwest 406 467 36,000  Level Memphis Center
Sun 04:00:46 PM 34.1194 -91.7069 222° Southwest 406 467 36,000  Level Memphis Center
Sun 04:02:43 PM 33.9592 -91.8722 221° Southwest 402 463 36,000  Level Fort Center
Sun 04:03:43 PM 33.8733 -91.9603 220° Southwest 402 463 36,000  Level Fort Center
Sun 04:04:42 PM 33.7894 -92.0456 220° Southwest 407 468 36,000  Level Fort Center
Sun 04:05:43 PM 33.7033 -92.1331 220° Southwest 407 468 36,000  Level Fort Center
Sun 04:06:43 PM 33.5953 -92.1894 203° Southwest 407 468 36,000  Level Fort Center
Sun 04:07:43 PM 33.4775 -92.2239 194° South 422 486 36,000  Level Fort Center
Sun 04:08:43 PM 33.3542 -92.2633 195° South 428 493 36,000  Level Fort Center
Sun 04:09:43 PM 33.2344 -92.2978 194° South 434 499 36,000  Level Fort Center
Sun 04:10:43 PM 33.1108 -92.3369 195° South 444 511 36,000  Level Fort Center
Sun 04:11:43 PM 32.9911 -92.3711 193° South 449 517 36,000  Level Fort Center
Sun 04:12:43 PM 32.8736 -92.4050 194° South 442 509 36,000  Level Fort Center
Sun 04:13:43 PM 32.7561 -92.4411 194° South 442 509 36,000  Level Fort Center
Sun 04:15:56 PM 32.5061 -92.5225 195° South 440 506 36,000  Level Houston Center
Sun 04:16:58 PM 32.3883 -92.5572 194° South 436 502 36,000  Level Houston Center
Sun 04:18:00 PM 32.2703 -92.5894 193° South 436 502 36,000  Level Houston Center
Sun 04:19:02 PM 32.1308 -92.6336 195° South 432 497 36,000  Level Houston Center
Sun 04:20:04 PM 32.0144 -92.6667 194° South 431 496 36,000  Level Houston Center
Sun 04:21:06 PM 31.9189 -92.7339 211° Southwest 404 465 36,000 -97 Level Houston Center
Sun 04:22:08 PM 31.8339 -92.8128 218° Southwest 392 451 35,800 -484 Descending Houston Center
Sun 04:23:10 PM 31.7528 -92.8917 220° Southwest 383 441 35,000 -387 Descending Houston Center
Sun 04:24:12 PM 31.6525 -92.9881 219° Southwest 390 449 35,000  Level Houston Center
Sun 04:25:15 PM 31.5656 -93.0708 219° Southwest 402 463 35,000  Level Houston Center
Sun 04:26:17 PM 31.4778 -93.1542 219° Southwest 407 468 35,000 -48 Level Houston Center
Sun 04:27:19 PM 31.3919 -93.2369 219° Southwest 403 464 34,900  Descending Houston Center
Sun 04:28:21 PM 31.2981 -93.3267 219° Southwest 403 464 35,000 48 Climbing Houston Center
Sun 04:29:23 PM 31.2183 -93.4028 219° Southwest 403 464 35,000 -339 Level Houston Center
Sun 04:30:25 PM 31.1158 -93.5006 219° Southwest 399 459 34,300 -1,355 Descending Houston Center
Sun 04:31:27 PM 31.0294 -93.5825 219° Southwest 400 460 32,200 -2,081 Descending Houston Center
Sun 04:32:29 PM 30.9439 -93.6633 219° Southwest 398 458 30,000 -2,177 Descending Houston Center
Sun 04:33:31 PM 30.8564 -93.7450 219° Southwest 402 463 27,700 -2,274 Descending Houston Center
Sun 04:34:33 PM 30.7686 -93.8297 220° Southwest 410 472 25,300 -2,544 Descending Houston Center
Sun 04:35:36 PM 30.6625 -93.9292 219° Southwest 412 474 22,400 -2,400 Descending Houston Center
Sun 04:36:38 PM 30.5764 -94.0108 219° Southwest 403 464 20,300 -1,984 Descending Houston Center
Sun 04:37:40 PM 30.4911 -94.0897 219° Southwest 395 455 18,300 -1,935 Descending Houston Center
Sun 04:38:42 PM 30.4075 -94.1689 219° Southwest 392 451 16,300 -1,984 Descending Houston Center
Sun 04:39:44 PM 30.3264 -94.2422 218° Southwest 379 436 14,200 -2,265 Descending Houston Center
Sun 04:40:20 PM 30.2672 -94.2972 219° Southwest 326 375 12,600 -2,129 Descending Houston Center
Sun 04:40:46 PM 30.2414 -94.3225 220° Southwest 337 388 12,000 -649 Descending Houston Center
Sun 04:41:34 PM 30.1942 -94.3867 230° Southwest 326 375 11,800 -661 Descending Houston Center
Sun 04:42:35 PM 30.1756 -94.4956 259° West 342 394 10,800 -868 Descending Houston Center
Sun 04:42:50 PM 30.1728 -94.5125 259° West 343 395 10,700 -774 Descending Houston Center
Sun 04:43:37 PM 30.1567 -94.6044 259° West 333 383 10,000 -677 Descending Houston Center
Sun 04:43:52 PM 30.1547 -94.6150 258° West 333 383 10,000  Level Houston Center
Sun 04:44:38 PM 30.1375 -94.7108 258° West 332 382 10,000  Level Houston Center
Sun 04:44:54 PM 30.1369 -94.7186 265° West 330 380 10,000  Level Houston Center
Sun 04:45:39 PM 30.1203 -94.8169 259° West 333 383 10,000  Level Houston Center
Sun 04:45:57 PM 30.1153 -94.8453 258° West 335 386 10,000  Level Houston Center
Sun 04:46:40 PM 30.1056 -94.9253 262° West 328 377 10,000  Level Houston Center
Sun 04:46:59 PM 30.1072 -94.9467 275° West 319 367 10,000 -774 Level Houston Center
Sun 04:47:42 PM 30.1058 -95.0169 269° West 263 303 9,200 -1,065 Descending Houston Center
Sun 04:48:01 PM 30.1056 -95.0331 269° West 281 323 8,900 -1,574 Descending Houston Center
Sun 04:48:43 PM 30.1050 -95.0992 269° West 263 303 7,600 -1,548 Descending Houston Center
Sun 04:49:03 PM 30.1064 -95.1172 275° West 268 308 7,300 -1,355 Descending Houston Center
Sun 04:49:45 PM 30.1050 -95.1886 269° West 260 299 6,200 -1,161 Descending Houston Center
Sun 04:50:05 PM 30.1072 -95.1997 283° West 261 300 6,100 -197 Descending Houston Center
Sun 04:50:46 PM 30.1061 -95.2706 269° West 263 303 6,000 -97 Descending Houston Center
Sun 04:51:07 PM 30.1072 -95.3003 272° West 262 302 6,000  Level Houston Center
Sun 04:51:47 PM 30.1061 -95.3600 269° West 265 305 6,000 -194 Level Houston Center
Sun 04:52:09 PM 30.1061 -95.3836 270° West 263 303 5,800 -1,082 Descending Houston Center
Sun 04:52:48 PM 30.0817 -95.4378 242° Southwest 261 300 4,900 -1,355 Descending Houston Center
Sun 04:53:11 PM 30.0725 -95.4583 243° Southwest 266 306 4,400 -1,645 Descending Houston Center
Sun 04:53:50 PM 30.0414 -95.5053 233° Southwest 267 307 3,200 -1,846 Descending Houston Center

Login

Don't have an account? Register now (free) for customized features, flight alerts, and more!